Provincetown II — WYQ8368 — position and weather

sailwx.info

Track history (hours):
 
Tides and Currents Weather Stations Pressure Air Temp Water Temp Dewpoint Dewpoint Depression Visibility Wind Speed Wind Dir Waves Ship Positions

Provincetown II

Owner: BAY STATE MARINE CORP, BOSTON, MA. More information available from US FCC via Universal Licensing System and Coast Guard Vessel Documentation Center.

Last reported at 2018-Jun-24 22:00 UTC. Time now 2018-Jun-24 22:01 UTC.
Position N 42°20' W 070°60'.

Length 64 m; draft 2 m.

Type: Passenger vessel. MMSI: 376325010.

Date/timePositionNaut miles runAvg speedWind from/ knotsBaromVisibWave heightAir tempDewpointWater temp
2018-Jun-24 22:00N 42°20' W 070°60'815.0
2018-Jun-24 21:30N 42°18' W 070°50'815.4
2018-Jun-24 21:00N 42°15' W 070°41'5 0.8
2018-Jun-24 14:15N 42°12' W 070°35'415.4
2018-Jun-24 13:59N 42°14' W 070°39'715.5
2018-Jun-24 13:30N 42°18' W 070°48'815.0
2018-Jun-24 13:00N 42°20' W 070°57'4 0.3
2018-Jun-24 01:51N 42°21' W 071°02'1 3.9
2018-Jun-24 01:30N 42°21' W 071°01'2 3.4
2018-Jun-24 01:00N 42°20' W 070°59'1 2.8
2018-Jun-24 00:30N 42°20' W 071°00'2 4.4
2018-Jun-24 00:00N 42°20' W 070°57'2 3.4
2018-Jun-23 23:30N 42°20' W 070°60'2 4.3
2018-Jun-23 23:00N 42°21' W 071°02'0 0.0
2018-Jun-23 22:30N 42°21' W 071°02'0 0.0
2018-Jun-23 21:59N 42°21' W 071°02'0 0.0
2018-Jun-23 21:30N 42°21' W 071°02'0 0.0
2018-Jun-23 21:00N 42°21' W 071°02'1 2.5
2018-Jun-23 20:30N 42°21' W 071°01'2 4.5
2018-Jun-23 20:00N 42°20' W 070°58'1 2.0
2018-Jun-23 19:30N 42°20' W 070°59'3 5.6
2018-Jun-23 19:00N 42°21' W 071°02'1 1.5
2018-Jun-23 18:30N 42°22' W 071°03'1 0.1
2018-Jun-23 02:30N 42°21' W 071°02'2 3.3
2018-Jun-23 02:00N 42°21' W 071°01'3 5.6
2018-Jun-23 01:30N 42°20' W 070°57'3 5.3
2018-Jun-23 01:00N 42°19' W 070°53'3 5.3
2018-Jun-23 00:30N 42°20' W 070°57'3 5.5
2018-Jun-23 00:00N 42°20' W 071°00'2 3.4
2018-Jun-22 23:30N 42°21' W 071°02'0 0.0
2018-Jun-22 23:00N 42°21' W 071°02'0 0.0
2018-Jun-22 22:30N 42°21' W 071°02'0 0.0
2018-Jun-22 22:00N 42°21' W 071°02'0 0.0
2018-Jun-22 21:30N 42°21' W 071°02'0 0.0
2018-Jun-22 21:00N 42°21' W 071°02'1 1.7
2018-Jun-22 20:30N 42°21' W 071°01'3 5.9
2018-Jun-22 20:00N 42°20' W 070°58'0 0.6
2018-Jun-22 19:30N 42°20' W 070°58'4 0.6
2018-Jun-22 13:58N 42°21' W 071°02'3 7.2
2018-Jun-22 13:30N 42°20' W 070°58'0 0.3
2018-Jun-22 13:00N 42°20' W 070°59'3 0.1
2018-Jun-21 02:03N 42°21' W 071°02'0 0.0
2018-Jun-21 02:00N 42°21' W 071°02'2 4.9
2018-Jun-21 01:30N 42°20' W 070°59'2 4.4
2018-Jun-21 01:01N 42°20' W 070°56'1 2.4
2018-Jun-21 00:30N 42°19' W 070°56'2 3.9
2018-Jun-21 00:00N 42°20' W 070°58'2 3.2
2018-Jun-20 23:30N 42°20' W 071°00'2 3.0
2018-Jun-20 22:58N 42°21' W 071°02'0 0.0
2018-Jun-20 22:28N 42°21' W 071°02'0 0.0
2018-Jun-20 21:57N 42°21' W 071°02'0 0.0
2018-Jun-20 21:27N 42°21' W 071°02'0 0.1
2018-Jun-20 20:57N 42°21' W 071°02'0 0.0
2018-Jun-20 20:29N 42°21' W 071°02'4 7.9
2018-Jun-20 20:00N 42°20' W 070°58'0 0.0
2018-Jun-20 19:30N 42°20' W 070°58'0 0.0
2018-Jun-20 19:00N 42°20' W 070°58'0 0.0
2018-Jun-20 18:30N 42°20' W 070°58'0 0.0
2018-Jun-20 18:00N 42°20' W 070°58'1 1.3
2018-Jun-20 17:30N 42°20' W 070°58'1 1.3
2018-Jun-20 17:00N 42°20' W 070°58'0 0.0
2018-Jun-20 16:30N 42°20' W 070°58'0 0.0
2018-Jun-20 15:58N 42°20' W 070°58'0 0.0
2018-Jun-20 15:30N 42°20' W 070°58'0 0.0
2018-Jun-20 14:57N 42°20' W 070°58'0 0.0
2018-Jun-20 14:30N 42°20' W 070°58'0 0.0
2018-Jun-20 14:00N 42°20' W 070°58'0 0.0
2018-Jun-20 13:30N 42°20' W 070°58'1 1.8
2018-Jun-20 13:00N 42°20' W 070°59'3 5.7
2018-Jun-20 12:29N 42°21' W 071°02'0 0.1
2018-Jun-20 11:59N 42°21' W 071°03'0 0.0
2018-Jun-18 20:32N 42°21' W 071°02'0 0.3
2018-Jun-18 20:30N 42°21' W 071°02'4 7.2
2018-Jun-18 19:58N 42°20' W 070°58'0 0.0
2018-Jun-18 19:29N 42°20' W 070°58'3 7.4
2018-Jun-18 19:00N 42°21' W 071°02'0 0.7
2018-Jun-18 18:29N 42°21' W 071°02'0 0.0
2018-Jun-18 17:58N 42°21' W 071°02'0 0.1
2018-Jun-18 17:29N 42°21' W 071°02'0 0.0
2018-Jun-18 16:59N 42°21' W 071°02'0 0.0
2018-Jun-18 16:28N 42°21' W 071°02'1 1.5
2018-Jun-18 16:00N 42°21' W 071°01'3 6.1
2018-Jun-18 15:29N 42°20' W 070°58'0 0.0
2018-Jun-18 14:59N 42°20' W 070°58'0 0.0
2018-Jun-18 14:29N 42°20' W 070°58'0 0.0
2018-Jun-18 13:59N 42°20' W 070°58'0 0.0
2018-Jun-18 13:29N 42°20' W 070°58'0 0.7
2018-Jun-18 13:00N 42°20' W 070°58'4 6.5
2018-Jun-18 12:28N 42°21' W 071°02'0 0.0
2018-Jun-17 23:11N 42°21' W 071°02'0 0.7
2018-Jun-17 23:00N 42°21' W 071°02'2 4.2
2018-Jun-17 22:30N 42°20' W 070°60'2 4.6
2018-Jun-17 22:00N 42°20' W 070°57'3 5.1
2018-Jun-17 21:30N 42°22' W 070°55'2 3.7
2018-Jun-17 21:00N 42°21' W 070°55'3 6.4
2018-Jun-17 20:30N 42°20' W 070°60'2 4.6
2018-Jun-17 20:00N 42°21' W 071°02'0 0.0
2018-Jun-17 19:30N 42°21' W 071°02'0 0.0
2018-Jun-17 19:00N 42°21' W 071°02'0 0.0
2018-Jun-17 18:30N 42°21' W 071°02'0 0.0
2018-Jun-17 01:52N 42°21' W 071°02'2 4.6
2018-Jun-17 01:30N 42°20' W 071°00'3 5.5
2018-Jun-17 00:59N 42°20' W 070°57'2 5.1
2018-Jun-17 00:30N 42°22' W 070°54'3 5.3
2018-Jun-17 00:00N 42°20' W 070°57'3 6.1
2018-Jun-16 23:31N 42°21' W 071°01'1 2.6
2018-Jun-16 23:00N 42°21' W 071°02'0 0.0
2018-Jun-16 22:30N 42°21' W 071°02'0 0.0
2018-Jun-16 22:00N 42°21' W 071°02'0 0.0
2018-Jun-16 21:30N 42°21' W 071°02'0 0.0
2018-Jun-15 01:19N 42°21' W 071°02'0 1.2
2018-Jun-15 01:00N 42°22' W 071°02'2 3.8
2018-Jun-15 00:30N 42°20' W 071°00'1 2.8
2018-Jun-15 00:00N 42°20' W 070°58'3 5.7
2018-Jun-14 23:30N 42°21' W 071°02'1 2.1
2018-Jun-14 23:00N 42°22' W 071°03'1 1.7
2018-Jun-14 22:30N 42°21' W 071°02'  
Track history (hours):
 
Tides and Currents Weather Stations Pressure Air Temp Water Temp Dewpoint Dewpoint Depression Visibility Wind Speed Wind Dir Waves Ship Positions

Provincetown II

Owner: BAY STATE MARINE CORP, BOSTON, MA. More information available from US FCC via Universal Licensing System and Coast Guard Vessel Documentation Center.

Last reported at 2018-Jun-24 22:00 UTC. Time now 2018-Jun-24 22:01 UTC.
Position N 42°20' W 070°60'.

Length 64 m; draft 2 m.

Type: Passenger vessel. MMSI: 376325010.

Date/timePositionNaut miles runAvg speedWind from/ knotsBaromVisibWave heightAir tempDewpointWater temp
2018-Jun-24 22:00N 42°20' W 070°60'815.0
2018-Jun-24 21:30N 42°18' W 070°50'815.4
2018-Jun-24 21:00N 42°15' W 070°41'5 0.8
2018-Jun-24 14:15N 42°12' W 070°35'415.4
2018-Jun-24 13:59N 42°14' W 070°39'715.5
2018-Jun-24 13:30N 42°18' W 070°48'815.0
2018-Jun-24 13:00N 42°20' W 070°57'4 0.3
2018-Jun-24 01:51N 42°21' W 071°02'1 3.9
2018-Jun-24 01:30N 42°21' W 071°01'2 3.4
2018-Jun-24 01:00N 42°20' W 070°59'1 2.8
2018-Jun-24 00:30N 42°20' W 071°00'2 4.4
2018-Jun-24 00:00N 42°20' W 070°57'2 3.4
2018-Jun-23 23:30N 42°20' W 070°60'2 4.3
2018-Jun-23 23:00N 42°21' W 071°02'0 0.0
2018-Jun-23 22:30N 42°21' W 071°02'0 0.0
2018-Jun-23 21:59N 42°21' W 071°02'0 0.0
2018-Jun-23 21:30N 42°21' W 071°02'0 0.0
2018-Jun-23 21:00N 42°21' W 071°02'1 2.5
2018-Jun-23 20:30N 42°21' W 071°01'2 4.5
2018-Jun-23 20:00N 42°20' W 070°58'1 2.0
2018-Jun-23 19:30N 42°20' W 070°59'3 5.6
2018-Jun-23 19:00N 42°21' W 071°02'1 1.5
2018-Jun-23 18:30N 42°22' W 071°03'1 0.1
2018-Jun-23 02:30N 42°21' W 071°02'2 3.3
2018-Jun-23 02:00N 42°21' W 071°01'3 5.6
2018-Jun-23 01:30N 42°20' W 070°57'3 5.3
2018-Jun-23 01:00N 42°19' W 070°53'3 5.3
2018-Jun-23 00:30N 42°20' W 070°57'3 5.5
2018-Jun-23 00:00N 42°20' W 071°00'2 3.4
2018-Jun-22 23:30N 42°21' W 071°02'0 0.0
2018-Jun-22 23:00N 42°21' W 071°02'0 0.0
2018-Jun-22 22:30N 42°21' W 071°02'0 0.0
2018-Jun-22 22:00N 42°21' W 071°02'0 0.0
2018-Jun-22 21:30N 42°21' W 071°02'0 0.0
2018-Jun-22 21:00N 42°21' W 071°02'1 1.7
2018-Jun-22 20:30N 42°21' W 071°01'3 5.9
2018-Jun-22 20:00N 42°20' W 070°58'0 0.6
2018-Jun-22 19:30N 42°20' W 070°58'4 0.6
2018-Jun-22 13:58N 42°21' W 071°02'3 7.2
2018-Jun-22 13:30N 42°20' W 070°58'0 0.3
2018-Jun-22 13:00N 42°20' W 070°59'3 0.1
2018-Jun-21 02:03N 42°21' W 071°02'0 0.0
2018-Jun-21 02:00N 42°21' W 071°02'2 4.9
2018-Jun-21 01:30N 42°20' W 070°59'2 4.4
2018-Jun-21 01:01N 42°20' W 070°56'1 2.4
2018-Jun-21 00:30N 42°19' W 070°56'2 3.9
2018-Jun-21 00:00N 42°20' W 070°58'2 3.2
2018-Jun-20 23:30N 42°20' W 071°00'2 3.0
2018-Jun-20 22:58N 42°21' W 071°02'0 0.0
2018-Jun-20 22:28N 42°21' W 071°02'0 0.0
2018-Jun-20 21:57N 42°21' W 071°02'0 0.0
2018-Jun-20 21:27N 42°21' W 071°02'0 0.1
2018-Jun-20 20:57N 42°21' W 071°02'0 0.0
2018-Jun-20 20:29N 42°21' W 071°02'4 7.9
2018-Jun-20 20:00N 42°20' W 070°58'0 0.0
2018-Jun-20 19:30N 42°20' W 070°58'0 0.0
2018-Jun-20 19:00N 42°20' W 070°58'0 0.0
2018-Jun-20 18:30N 42°20' W 070°58'0 0.0
2018-Jun-20 18:00N 42°20' W 070°58'1 1.3
2018-Jun-20 17:30N 42°20' W 070°58'1 1.3
2018-Jun-20 17:00N 42°20' W 070°58'0 0.0
2018-Jun-20 16:30N 42°20' W 070°58'0 0.0
2018-Jun-20 15:58N 42°20' W 070°58'0 0.0
2018-Jun-20 15:30N 42°20' W 070°58'0 0.0
2018-Jun-20 14:57N 42°20' W 070°58'0 0.0
2018-Jun-20 14:30N 42°20' W 070°58'0 0.0
2018-Jun-20 14:00N 42°20' W 070°58'0 0.0
2018-Jun-20 13:30N 42°20' W 070°58'1 1.8
2018-Jun-20 13:00N 42°20' W 070°59'3 5.7
2018-Jun-20 12:29N 42°21' W 071°02'0 0.1
2018-Jun-20 11:59N 42°21' W 071°03'0 0.0
2018-Jun-18 20:32N 42°21' W 071°02'0 0.3
2018-Jun-18 20:30N 42°21' W 071°02'4 7.2
2018-Jun-18 19:58N 42°20' W 070°58'0 0.0
2018-Jun-18 19:29N 42°20' W 070°58'3 7.4
2018-Jun-18 19:00N 42°21' W 071°02'0 0.7
2018-Jun-18 18:29N 42°21' W 071°02'0 0.0
2018-Jun-18 17:58N 42°21' W 071°02'0 0.1
2018-Jun-18 17:29N 42°21' W 071°02'0 0.0
2018-Jun-18 16:59N 42°21' W 071°02'0 0.0
2018-Jun-18 16:28N 42°21' W 071°02'1 1.5
2018-Jun-18 16:00N 42°21' W 071°01'3 6.1
2018-Jun-18 15:29N 42°20' W 070°58'0 0.0
2018-Jun-18 14:59N 42°20' W 070°58'0 0.0
2018-Jun-18 14:29N 42°20' W 070°58'0 0.0
2018-Jun-18 13:59N 42°20' W 070°58'0 0.0
2018-Jun-18 13:29N 42°20' W 070°58'0 0.7
2018-Jun-18 13:00N 42°20' W 070°58'4 6.5
2018-Jun-18 12:28N 42°21' W 071°02'0 0.0
2018-Jun-17 23:11N 42°21' W 071°02'0 0.7
2018-Jun-17 23:00N 42°21' W 071°02'2 4.2
2018-Jun-17 22:30N 42°20' W 070°60'2 4.6
2018-Jun-17 22:00N 42°20' W 070°57'3 5.1
2018-Jun-17 21:30N 42°22' W 070°55'2 3.7
2018-Jun-17 21:00N 42°21' W 070°55'3 6.4
2018-Jun-17 20:30N 42°20' W 070°60'2 4.6
2018-Jun-17 20:00N 42°21' W 071°02'0 0.0
2018-Jun-17 19:30N 42°21' W 071°02'0 0.0
2018-Jun-17 19:00N 42°21' W 071°02'0 0.0
2018-Jun-17 18:30N 42°21' W 071°02'0 0.0
2018-Jun-17 01:52N 42°21' W 071°02'2 4.6
2018-Jun-17 01:30N 42°20' W 071°00'3 5.5
2018-Jun-17 00:59N 42°20' W 070°57'2 5.1
2018-Jun-17 00:30N 42°22' W 070°54'3 5.3
2018-Jun-17 00:00N 42°20' W 070°57'3 6.1
2018-Jun-16 23:31N 42°21' W 071°01'1 2.6
2018-Jun-16 23:00N 42°21' W 071°02'0 0.0
2018-Jun-16 22:30N 42°21' W 071°02'0 0.0
2018-Jun-16 22:00N 42°21' W 071°02'0 0.0
2018-Jun-16 21:30N 42°21' W 071°02'0 0.0
2018-Jun-15 01:19N 42°21' W 071°02'0 1.2
2018-Jun-15 01:00N 42°22' W 071°02'2 3.8
2018-Jun-15 00:30N 42°20' W 071°00'1 2.8
2018-Jun-15 00:00N 42°20' W 070°58'3 5.7
2018-Jun-14 23:30N 42°21' W 071°02'1 2.1
2018-Jun-14 23:00N 42°22' W 071°03'1 1.7
2018-Jun-14 22:30N 42°21' W 071°02'  

Dump ship's entire track history